Time;durP1;ratioP1;P1;durP2;ratioP2;P2;SDS_P1;SDS_P2;PMS_P1;PMS_P2;Temp;Humidity;BMP_temperature;BMP_pressure;BME280_temperature;BME280_humidity;BME280_pressure;Samples;Min_cycle;Max_cycle;Signal;HPM_P1;HPM_P2
2022/07/17 00:01:02;;;;;;;;;;;13.20;99.90;;;;;;6216786;23;19923;-69
2022/07/17 00:03:28;;;;;;;;;;;13.10;99.90;;;;;;6216389;23;19916;-68
2022/07/17 00:05:53;;;;;;;;;;;13.00;99.90;;;;;;6216665;23;19962;-70
2022/07/17 00:08:19;;;;;;;;;;;13.00;99.90;;;;;;6216741;23;19922;-70
2022/07/17 00:10:44;;;;;;;;;;;13.00;99.90;;;;;;6189473;23;19923;-69
2022/07/17 00:13:10;;;;;;;;;;;12.90;99.90;;;;;;6216361;23;19916;-68
2022/07/17 00:15:36;;;;;;;;;;;13.00;99.90;;;;;;6216604;23;19990;-68
2022/07/17 00:18:02;;;;;;;;;;;13.00;99.90;;;;;;6216550;23;20006;-69
2022/07/17 00:20:28;;;;;;;;;;;13.00;99.90;;;;;;6165093;23;20344;-69
2022/07/17 00:22:55;;;;;;;;;;;12.90;99.90;;;;;;6216475;23;19919;-68
2022/07/17 00:25:20;;;;;;;;;;;12.90;99.90;;;;;;6216504;23;19915;-68
2022/07/17 00:27:46;;;;;;;;;;;12.90;99.90;;;;;;6189229;23;20042;-69
2022/07/17 00:30:12;;;;;;;;;;;12.80;99.90;;;;;;6216280;23;19923;-70
2022/07/17 00:32:38;;;;;;;;;;;13.30;99.90;;;;;;6216100;23;20392;-67
2022/07/17 00:35:04;;;;;;;;;;;12.70;99.90;;;;;;6190034;23;19986;-67
2022/07/17 00:37:29;;;;;;;;;;;12.70;99.90;;;;;;6216504;23;19990;-68
2022/07/17 00:39:55;;;;;;;;;;;12.70;99.90;;;;;;6216448;23;19964;-69
2022/07/17 00:42:20;;;;;;;;;;;12.70;99.90;;;;;;6216492;23;20348;-70
2022/07/17 00:44:46;;;;;;;;;;;12.70;99.90;;;;;;6216267;23;19916;-69
2022/07/17 00:47:17;;;;;;;;;;;12.70;99.90;;;;;;6189779;23;19916;-68
2022/07/17 00:49:42;;;;;;;;;;;12.70;99.90;;;;;;6216241;23;19919;-68
2022/07/17 00:52:08;;;;;;;;;;;12.70;99.90;;;;;;6216407;23;20344;-68
2022/07/17 00:54:36;;;;;;;;;;;12.60;99.90;;;;;;6216377;23;19919;-70
2022/07/17 00:57:05;;;;;;;;;;;12.60;99.90;;;;;;6189499;23;19923;-69
2022/07/17 00:59:32;;;;;;;;;;;12.60;99.90;;;;;;6189639;23;19915;-71
2022/07/17 01:01:58;;;;;;;;;;;12.60;99.90;;;;;;6165204;23;20349;-68
2022/07/17 01:04:24;;;;;;;;;;;12.50;99.90;;;;;;6216790;23;19920;-69
2022/07/17 01:06:49;;;;;;;;;;;12.50;99.90;;;;;;6189832;23;20276;-69
2022/07/17 01:09:15;;;;;;;;;;;12.40;99.90;;;;;;6216560;23;19919;-68
2022/07/17 01:11:40;;;;;;;;;;;12.40;99.90;;;;;;6216381;23;19951;-71
2022/07/17 01:14:06;;;;;;;;;;;12.30;99.90;;;;;;6216192;23;19916;-68
2022/07/17 01:16:32;;;;;;;;;;;12.30;99.90;;;;;;6216289;23;19962;-69
2022/07/17 01:18:58;;;;;;;;;;;12.30;99.90;;;;;;6189625;23;19922;-68
2022/07/17 01:21:24;;;;;;;;;;;12.40;99.90;;;;;;6190110;23;19923;-68
2022/07/17 01:23:50;;;;;;;;;;;12.60;99.90;;;;;;6218241;23;20246;-69
2022/07/17 01:26:15;;;;;;;;;;;12.30;99.90;;;;;;6218262;23;19995;-69
2022/07/17 01:28:41;;;;;;;;;;;12.30;99.90;;;;;;6218017;23;19916;-70
2022/07/17 01:31:06;;;;;;;;;;;12.60;99.90;;;;;;6218132;23;19916;-68
2022/07/17 01:33:32;;;;;;;;;;;12.30;99.90;;;;;;6218121;23;20038;-69
2022/07/17 01:35:58;;;;;;;;;;;11.20;99.90;;;;;;6218172;23;19916;-69
2022/07/17 01:38:23;;;;;;;;;;;12.30;99.90;;;;;;6191464;23;20355;-70
2022/07/17 01:40:49;;;;;;;;;;;12.20;99.90;;;;;;6218065;23;19915;-69
2022/07/17 01:43:14;;;;;;;;;;;12.20;99.90;;;;;;6217880;23;19923;-69
2022/07/17 01:45:40;;;;;;;;;;;12.20;99.90;;;;;;6191294;23;19966;-68
2022/07/17 01:48:05;;;;;;;;;;;12.70;99.90;;;;;;6217843;23;19970;-68
2022/07/17 01:50:31;;;;;;;;;;;12.20;99.90;;;;;;6217928;23;19971;-70
2022/07/17 01:52:57;;;;;;;;;;;12.20;99.90;;;;;;6191333;23;19916;-69
2022/07/17 01:55:22;;;;;;;;;;;12.20;99.90;;;;;;6166555;23;20304;-68
2022/07/17 01:57:48;;;;;;;;;;;12.10;99.90;;;;;;6217900;23;19916;-69
2022/07/17 02:00:16;;;;;;;;;;;12.10;99.90;;;;;;6217777;23;19920;-67
2022/07/17 02:02:41;;;;;;;;;;;12.10;99.90;;;;;;6217794;23;19970;-70
2022/07/17 02:05:07;;;;;;;;;;;12.00;99.90;;;;;;6190879;23;20150;-68
2022/07/17 02:07:34;;;;;;;;;;;11.40;99.90;;;;;;6166190;23;19915;-68
2022/07/17 02:10:00;;;;;;;;;;;12.00;99.90;;;;;;6217601;23;20336;-68
2022/07/17 02:12:25;;;;;;;;;;;12.00;99.90;;;;;;6217400;23;19916;-71
2022/07/17 02:14:51;;;;;;;;;;;12.00;99.90;;;;;;6217830;23;19916;-68
2022/07/17 02:17:16;;;;;;;;;;;12.20;99.90;;;;;;6217739;23;19943;-70
2022/07/17 02:19:42;;;;;;;;;;;12.10;99.90;;;;;;6191220;23;20383;-68
2022/07/17 02:22:08;;;;;;;;;;;12.10;99.90;;;;;;6191087;23;19916;-69
2022/07/17 02:24:33;;;;;;;;;;;12.20;99.90;;;;;;6217552;23;19959;-68
2022/07/17 02:26:59;;;;;;;;;;;12.10;99.90;;;;;;6217753;23;19969;-71
2022/07/17 02:29:24;;;;;;;;;;;12.10;99.90;;;;;;6217421;23;20236;-69
2022/07/17 02:31:50;;;;;;;;;;;12.00;99.90;;;;;;6190953;23;19916;-69
2022/07/17 02:34:15;;;;;;;;;;;12.00;99.90;;;;;;6217009;23;19923;-68
2022/07/17 02:36:41;;;;;;;;;;;12.00;99.90;;;;;;6217540;23;19923;-71
2022/07/17 02:39:07;;;;;;;;;;;11.90;99.90;;;;;;6191019;23;20281;-69
2022/07/17 02:41:33;;;;;;;;;;;11.80;99.90;;;;;;6190927;23;19938;-68
2022/07/17 02:43:58;;;;;;;;;;;11.80;99.90;;;;;;6217186;23;20233;-69
2022/07/17 02:46:24;;;;;;;;;;;11.70;99.90;;;;;;6217801;23;19919;-69
2022/07/17 02:48:49;;;;;;;;;;;11.70;99.90;;;;;;6190738;23;19995;-68
2022/07/17 02:51:15;;;;;;;;;;;11.70;99.90;;;;;;6190846;23;19978;-69
2022/07/17 02:53:40;;;;;;;;;;;11.70;99.90;;;;;;6217913;23;20317;-67
2022/07/17 02:56:06;;;;;;;;;;;11.80;99.90;;;;;;6190830;23;19915;-68
2022/07/17 02:58:31;;;;;;;;;;;11.80;99.90;;;;;;6217256;23;19994;-69
2022/07/17 03:00:57;;;;;;;;;;;11.80;99.90;;;;;;6217362;23;19916;-70
2022/07/17 03:03:23;;;;;;;;;;;11.80;99.90;;;;;;6217302;23;19941;-71
2022/07/17 03:05:48;;;;;;;;;;;11.80;99.90;;;;;;6217349;23;20368;-72
2022/07/17 03:08:14;;;;;;;;;;;11.80;99.90;;;;;;6217294;23;20263;-69
2022/07/17 03:10:40;;;;;;;;;;;11.90;99.90;;;;;;6217062;23;19970;-69
2022/07/17 03:13:05;;;;;;;;;;;11.80;99.90;;;;;;6217178;23;19962;-68
2022/07/17 03:15:32;;;;;;;;;;;11.70;99.90;;;;;;6217146;23;19916;-71
2022/07/17 03:17:57;;;;;;;;;;;11.60;99.90;;;;;;6190539;23;19923;-68
2022/07/17 03:20:23;;;;;;;;;;;11.50;99.90;;;;;;6217141;23;19920;-70
2022/07/17 03:22:49;;;;;;;;;;;11.40;99.90;;;;;;6217070;23;19915;-68
2022/07/17 03:25:14;;;;;;;;;;;11.30;99.90;;;;;;6217066;23;19999;-70
2022/07/17 03:27:40;;;;;;;;;;;11.30;99.90;;;;;;6217038;23;19923;-69
2022/07/17 03:30:06;;;;;;;;;;;11.30;99.90;;;;;;6216816;23;19915;-68
2022/07/17 03:32:31;;;;;;;;;;;11.30;99.90;;;;;;6190517;23;20384;-71
2022/07/17 03:34:57;;;;;;;;;;;11.60;99.90;;;;;;6217012;23;19919;-69
2022/07/17 03:37:22;;;;;;;;;;;11.30;99.90;;;;;;6216944;23;19920;-68
2022/07/17 03:39:48;;;;;;;;;;;11.50;99.90;;;;;;6190391;23;19962;-69
2022/07/17 03:42:13;;;;;;;;;;;11.40;99.90;;;;;;6216508;23;19920;-71
2022/07/17 03:44:39;;;;;;;;;;;11.40;99.90;;;;;;6216369;23;19916;-67
2022/07/17 03:47:05;;;;;;;;;;;11.40;99.90;;;;;;6216765;23;20333;-67
2022/07/17 03:49:30;;;;;;;;;;;11.40;99.90;;;;;;6190165;23;20281;-68
2022/07/17 03:51:56;;;;;;;;;;;11.40;99.90;;;;;;6216791;23;19916;-68
2022/07/17 03:54:21;;;;;;;;;;;11.50;99.90;;;;;;6216772;23;19916;-69
2022/07/17 03:56:47;;;;;;;;;;;11.50;99.90;;;;;;6216748;23;19986;-71
2022/07/17 03:59:12;;;;;;;;;;;11.50;99.90;;;;;;6190158;23;19966;-71
2022/07/17 04:01:38;;;;;;;;;;;11.40;99.90;;;;;;6216845;23;20339;-68
2022/07/17 04:04:04;;;;;;;;;;;11.40;99.90;;;;;;6216761;23;19919;-68
2022/07/17 04:06:29;;;;;;;;;;;11.40;99.90;;;;;;6216708;23;19915;-70
2022/07/17 04:08:55;;;;;;;;;;;11.40;99.90;;;;;;6216626;23;19916;-68
2022/07/17 04:11:20;;;;;;;;;;;11.50;99.90;;;;;;6216634;23;19951;-68
2022/07/17 04:13:46;;;;;;;;;;;11.50;99.90;;;;;;6216540;23;19920;-70
2022/07/17 04:16:12;;;;;;;;;;;11.50;99.90;;;;;;6216687;23;19947;-68
2022/07/17 04:18:38;;;;;;;;;;;11.50;99.90;;;;;;6216594;23;19920;-70
2022/07/17 04:21:05;;;;;;;;;;;10.30;99.90;;;;;;6216609;23;19920;-68
2022/07/17 04:23:31;;;;;;;;;;;11.50;99.90;;;;;;6216643;23;19916;-69
2022/07/17 04:25:56;;;;;;;;;;;10.80;99.90;;;;;;6216592;23;20233;-69
2022/07/17 04:28:22;;;;;;;;;;;11.50;99.90;;;;;;6189619;23;19915;-69
2022/07/17 04:30:48;;;;;;;;;;;11.50;99.90;;;;;;6216374;23;19915;-68
2022/07/17 04:33:14;;;;;;;;;;;11.60;99.90;;;;;;6216566;23;20333;-70
2022/07/17 04:35:39;;;;;;;;;;;11.60;99.90;;;;;;6216511;23;19978;-68
2022/07/17 04:38:06;;;;;;;;;;;11.60;99.90;;;;;;6216481;23;19923;-70
2022/07/17 04:40:32;;;;;;;;;;;11.60;99.90;;;;;;6216410;23;19916;-68
2022/07/17 04:42:58;;;;;;;;;;;11.70;99.90;;;;;;6216425;23;19916;-69
2022/07/17 04:45:23;;;;;;;;;;;11.70;99.90;;;;;;6216299;23;19919;-68
2022/07/17 04:47:49;;;;;;;;;;;11.70;99.90;;;;;;6216319;23;19923;-70
2022/07/17 04:50:14;;;;;;;;;;;11.70;99.90;;;;;;6216336;23;19915;-71
2022/07/17 04:52:40;;;;;;;;;;;11.80;99.90;;;;;;6189858;23;19922;-68
2022/07/17 04:55:06;;;;;;;;;;;11.80;99.90;;;;;;6216363;23;20046;-69
2022/07/17 04:57:31;;;;;;;;;;;11.80;99.90;;;;;;6217728;23;19916;-68
2022/07/17 04:59:57;;;;;;;;;;;11.90;99.90;;;;;;6218289;23;19922;-71
2022/07/17 05:02:23;;;;;;;;;;;11.90;99.90;;;;;;6218394;23;20011;-68
2022/07/17 05:04:48;;;;;;;;;;;11.90;99.90;;;;;;6218389;23;19922;-69
2022/07/17 05:07:14;;;;;;;;;;;12.00;99.90;;;;;;6191779;23;20241;-69
2022/07/17 05:09:40;;;;;;;;;;;12.00;99.90;;;;;;6218330;23;19919;-69
2022/07/17 05:12:06;;;;;;;;;;;10.80;99.90;;;;;;6166972;23;19931;-68
2022/07/17 05:14:31;;;;;;;;;;;12.10;99.90;;;;;;6218309;23;19920;-70
2022/07/17 05:16:57;;;;;;;;;;;12.30;99.90;;;;;;6218243;23;19963;-69
2022/07/17 05:19:23;;;;;;;;;;;12.40;99.90;;;;;;6218354;23;19920;-68
2022/07/17 05:21:49;;;;;;;;;;;12.20;99.90;;;;;;6218245;23;19938;-69
2022/07/17 05:24:15;;;;;;;;;;;12.20;99.90;;;;;;6218247;23;19922;-68
2022/07/17 05:26:40;;;;;;;;;;;11.20;99.90;;;;;;6218080;23;20292;-69
2022/07/17 05:29:06;;;;;;;;;;;12.20;99.90;;;;;;6191377;23;19915;-68
2022/07/17 05:31:31;;;;;;;;;;;12.20;99.90;;;;;;6218088;23;20288;-69
2022/07/17 05:33:57;;;;;;;;;;;12.20;99.90;;;;;;6218062;23;20329;-69
2022/07/17 05:36:22;;;;;;;;;;;12.30;99.90;;;;;;6218034;23;19920;-68
2022/07/17 05:38:48;;;;;;;;;;;12.30;99.90;;;;;;6218155;23;20284;-68
2022/07/17 05:41:13;;;;;;;;;;;12.30;99.90;;;;;;6218161;23;20388;-70
2022/07/17 05:43:39;;;;;;;;;;;12.80;99.90;;;;;;6217932;23;19915;-68
2022/07/17 05:46:05;;;;;;;;;;;12.30;99.90;;;;;;6218101;23;19916;-68
2022/07/17 05:48:30;;;;;;;;;;;12.30;99.90;;;;;;6217853;23;19955;-70
2022/07/17 05:50:57;;;;;;;;;;;12.30;99.90;;;;;;6191418;23;19916;-67
2022/07/17 05:53:23;;;;;;;;;;;12.50;99.90;;;;;;6217922;23;19981;-68
2022/07/17 05:55:48;;;;;;;;;;;12.30;99.90;;;;;;6217887;23;19920;-68
2022/07/17 05:58:14;;;;;;;;;;;12.40;99.90;;;;;;6217985;23;19920;-67
2022/07/17 06:00:39;;;;;;;;;;;12.40;99.90;;;;;;6217798;23;20309;-70
2022/07/17 06:03:05;;;;;;;;;;;12.50;99.90;;;;;;6217806;23;19986;-68
2022/07/17 06:05:31;;;;;;;;;;;12.70;99.90;;;;;;6190717;23;20358;-69
2022/07/17 06:07:57;;;;;;;;;;;12.50;99.90;;;;;;6217829;23;19916;-69
2022/07/17 06:10:23;;;;;;;;;;;12.60;99.90;;;;;;6218120;23;19922;-67
2022/07/17 06:12:49;;;;;;;;;;;12.60;99.90;;;;;;6191201;23;19916;-72
2022/07/17 06:15:15;;;;;;;;;;;12.70;99.90;;;;;;6217133;23;19920;-69
2022/07/17 06:17:41;;;;;;;;;;;12.70;99.90;;;;;;6217341;23;19922;-71
2022/07/17 06:20:07;;;;;;;;;;;12.80;99.90;;;;;;6191172;23;19938;-69
2022/07/17 06:22:32;;;;;;;;;;;12.80;99.90;;;;;;6217640;23;20352;-70
2022/07/17 06:24:58;;;;;;;;;;;13.00;99.90;;;;;;6217606;23;19923;-70
2022/07/17 06:27:23;;;;;;;;;;;13.10;99.90;;;;;;6191183;23;20357;-68
2022/07/17 06:29:49;;;;;;;;;;;13.00;99.90;;;;;;6217532;23;20341;-71
2022/07/17 06:32:15;;;;;;;;;;;13.10;99.90;;;;;;6217585;23;20348;-68
2022/07/17 06:34:41;;;;;;;;;;;13.20;99.90;;;;;;6217520;23;19920;-71
2022/07/17 06:37:06;;;;;;;;;;;13.30;99.90;;;;;;6217567;23;19921;-68
2022/07/17 06:39:32;;;;;;;;;;;13.40;99.90;;;;;;6217521;23;19915;-69
2022/07/17 06:41:58;;;;;;;;;;;13.50;99.90;;;;;;6217520;23;20296;-68
2022/07/17 06:44:23;;;;;;;;;;;13.60;99.90;;;;;;6217159;23;20403;-68
2022/07/17 06:46:49;;;;;;;;;;;13.60;99.90;;;;;;6217375;23;19916;-69
2022/07/17 06:49:15;;;;;;;;;;;13.70;99.90;;;;;;6217319;23;19923;-68
2022/07/17 06:51:40;;;;;;;;;;;13.80;99.90;;;;;;6217481;23;19942;-70
2022/07/17 06:54:06;;;;;;;;;;;13.90;99.90;;;;;;6190827;23;20253;-68
2022/07/17 06:56:31;;;;;;;;;;;13.90;99.90;;;;;;6189399;23;19919;-68
2022/07/17 06:58:57;;;;;;;;;;;14.10;99.90;;;;;;6190015;23;19916;-72
2022/07/17 07:01:22;;;;;;;;;;;14.00;99.90;;;;;;6216865;23;19926;-69
2022/07/17 07:03:48;;;;;;;;;;;14.10;99.90;;;;;;6190112;23;19915;-69
2022/07/17 07:06:13;;;;;;;;;;;14.20;99.90;;;;;;6190519;23;19978;-69
2022/07/17 07:08:39;;;;;;;;;;;14.20;99.90;;;;;;6190469;23;19916;-68
2022/07/17 07:11:05;;;;;;;;;;;14.30;99.90;;;;;;6165720;23;19916;-68
2022/07/17 07:13:30;;;;;;;;;;;14.50;99.90;;;;;;6190534;23;19915;-70
2022/07/17 07:15:56;;;;;;;;;;;14.40;99.90;;;;;;6190213;23;19964;-71
2022/07/17 07:18:22;;;;;;;;;;;14.40;99.90;;;;;;6217036;23;19923;-68
2022/07/17 07:20:47;;;;;;;;;;;14.60;99.90;;;;;;6190122;23;19923;-69
2022/07/17 07:23:13;;;;;;;;;;;14.50;99.90;;;;;;6189529;23;19916;-67
2022/07/17 07:25:38;;;;;;;;;;;14.50;99.90;;;;;;6190308;23;19920;-68
2022/07/17 07:28:04;;;;;;;;;;;14.60;99.90;;;;;;6216878;23;19947;-70
2022/07/17 07:30:30;;;;;;;;;;;14.60;99.90;;;;;;6216868;23;19916;-68
2022/07/17 07:32:56;;;;;;;;;;;15.40;99.90;;;;;;6216992;23;19916;-69
2022/07/17 07:35:22;;;;;;;;;;;15.00;99.90;;;;;;6216915;23;19916;-68
2022/07/17 07:37:48;;;;;;;;;;;14.80;99.90;;;;;;6216817;23;19998;-68
2022/07/17 07:40:13;;;;;;;;;;;14.80;99.90;;;;;;6216882;23;19915;-68
2022/07/17 07:42:39;;;;;;;;;;;14.80;99.90;;;;;;6216890;23;19986;-71
2022/07/17 07:45:05;;;;;;;;;;;14.80;99.90;;;;;;6216283;23;19931;-69
2022/07/17 07:47:30;;;;;;;;;;;14.90;99.90;;;;;;6190208;23;19923;-68
2022/07/17 07:49:56;;;;;;;;;;;14.90;99.90;;;;;;6216678;23;19920;-68
2022/07/17 07:52:22;;;;;;;;;;;15.00;99.90;;;;;;6190259;23;19922;-68
2022/07/17 07:54:48;;;;;;;;;;;15.00;99.90;;;;;;6216406;23;19919;-70
2022/07/17 07:57:13;;;;;;;;;;;15.10;99.90;;;;;;6189929;23;19919;-69
2022/07/17 07:59:39;;;;;;;;;;;15.10;99.90;;;;;;6216556;23;19954;-68
2022/07/17 08:02:04;;;;;;;;;;;15.20;99.90;;;;;;6190070;23;19920;-68
2022/07/17 08:04:30;;;;;;;;;;;15.30;99.90;;;;;;6216785;23;19920;-70
2022/07/17 08:06:56;;;;;;;;;;;15.00;99.90;;;;;;6216286;23;19923;-70
2022/07/17 08:09:21;;;;;;;;;;;15.40;99.90;;;;;;6189948;23;19939;-69
2022/07/17 08:11:47;;;;;;;;;;;15.40;99.90;;;;;;6189840;23;19916;-69
2022/07/17 08:14:12;;;;;;;;;;;15.40;99.90;;;;;;6216654;23;20325;-68
2022/07/17 08:16:38;;;;;;;;;;;15.50;99.90;;;;;;6216597;23;19916;-70
2022/07/17 08:19:03;;;;;;;;;;;15.50;99.90;;;;;;6216629;23;19916;-70
2022/07/17 08:21:29;;;;;;;;;;;15.50;99.90;;;;;;6216507;23;19915;-69
2022/07/17 08:23:54;;;;;;;;;;;15.60;99.90;;;;;;6216600;23;19963;-69
2022/07/17 08:26:20;;;;;;;;;;;15.60;99.90;;;;;;6216338;23;19923;-69
2022/07/17 08:28:46;;;;;;;;;;;15.60;99.90;;;;;;6216368;23;19916;-69
2022/07/17 08:31:11;;;;;;;;;;;15.70;99.90;;;;;;6215899;23;19916;-69
2022/07/17 08:33:37;;;;;;;;;;;15.70;99.90;;;;;;6216497;23;20237;-69
2022/07/17 08:36:02;;;;;;;;;;;15.80;99.90;;;;;;6216025;23;19998;-68
2022/07/17 08:38:28;;;;;;;;;;;15.80;99.90;;;;;;6189873;23;19916;-69
2022/07/17 08:40:54;;;;;;;;;;;15.80;99.90;;;;;;6189875;23;19985;-69
2022/07/17 08:43:20;;;;;;;;;;;15.90;99.90;;;;;;6189775;23;19916;-69
2022/07/17 08:45:47;;;;;;;;;;;16.00;99.90;;;;;;6189441;23;19942;-69
2022/07/17 08:48:14;;;;;;;;;;;16.10;99.90;;;;;;6189820;23;19920;-70
2022/07/17 08:50:39;;;;;;;;;;;16.10;99.90;;;;;;6216292;23;20211;-71
2022/07/17 08:53:05;;;;;;;;;;;16.20;99.90;;;;;;6216327;23;19962;-69
2022/07/17 08:55:31;;;;;;;;;;;16.20;99.90;;;;;;6189787;23;19919;-69
2022/07/17 08:57:56;;;;;;;;;;;16.30;99.90;;;;;;6189624;23;20246;-69
2022/07/17 09:00:22;;;;;;;;;;;16.30;99.90;;;;;;6189631;23;19994;-69
2022/07/17 09:02:54;;;;;;;;;;;16.30;99.90;;;;;;6216640;23;19922;-69
2022/07/17 09:05:20;;;;;;;;;;;16.40;99.90;;;;;;6189220;23;20009;-70
2022/07/17 09:07:47;;;;;;;;;;;16.40;99.90;;;;;;6216322;23;19920;-70
2022/07/17 09:10:12;;;;;;;;;;;16.40;99.90;;;;;;6216274;23;20348;-71
2022/07/17 09:12:38;;;;;;;;;;;16.50;99.90;;;;;;6216267;23;19916;-68
2022/07/17 09:15:14;;;;;;;;;;;16.50;99.90;;;;;;6189481;23;19996;-70
2022/07/17 09:17:47;;;;;;;;;;;16.50;99.90;;;;;;6216285;23;20244;-68
2022/07/17 09:20:12;;;;;;;;;;;16.60;99.90;;;;;;6216316;23;19916;-69
2022/07/17 09:22:38;;;;;;;;;;;16.60;99.90;;;;;;6189368;23;20241;-69
2022/07/17 09:25:04;;;;;;;;;;;16.70;99.90;;;;;;6216252;23;19920;-69
2022/07/17 09:27:31;;;;;;;;;;;16.70;99.90;;;;;;6216014;23;19923;-69
2022/07/17 09:29:57;;;;;;;;;;;16.80;99.90;;;;;;6216043;23;19916;-71
2022/07/17 09:32:24;;;;;;;;;;;16.90;99.90;;;;;;6216232;23;20380;-69
2022/07/17 09:34:50;;;;;;;;;;;16.90;99.90;;;;;;6189612;23;19915;-69
2022/07/17 09:37:16;;;;;;;;;;;17.00;99.90;;;;;;6216201;23;19916;-71
2022/07/17 09:39:42;;;;;;;;;;;17.10;99.90;;;;;;6164852;23;19959;-71
2022/07/17 09:42:08;;;;;;;;;;;17.10;99.90;;;;;;6216202;23;20328;-69
2022/07/17 09:44:33;;;;;;;;;;;17.10;99.90;;;;;;6166079;23;19915;-70
2022/07/17 09:47:00;;;;;;;;;;;17.20;99.90;;;;;;6217967;23;20022;-69
2022/07/17 09:49:27;;;;;;;;;;;18.30;99.90;;;;;;6217808;23;19915;-69
2022/07/17 09:51:53;;;;;;;;;;;17.20;99.90;;;;;;6217909;23;19916;-69
2022/07/17 09:54:20;;;;;;;;;;;17.30;99.90;;;;;;6217954;23;19916;-69
2022/07/17 09:56:47;;;;;;;;;;;17.30;99.90;;;;;;6217815;23;20335;-69
2022/07/17 09:59:13;;;;;;;;;;;17.30;99.90;;;;;;6217755;23;19915;-69
2022/07/17 10:01:40;;;;;;;;;;;17.40;99.90;;;;;;6217855;23;19923;-70
2022/07/17 10:04:05;;;;;;;;;;;17.40;99.90;;;;;;6190190;23;19961;-70
2022/07/17 10:06:31;;;;;;;;;;;17.50;99.90;;;;;;6216960;23;19995;-69
2022/07/17 10:08:58;;;;;;;;;;;17.50;99.90;;;;;;6217449;23;19922;-70
2022/07/17 10:11:26;;;;;;;;;;;17.60;99.90;;;;;;6217272;23;19955;-69
2022/07/17 10:13:53;;;;;;;;;;;17.60;99.90;;;;;;6217157;23;19915;-69
2022/07/17 10:16:24;;;;;;;;;;;17.60;99.90;;;;;;6217323;23;19920;-68
2022/07/17 10:18:52;;;;;;;;;;;17.60;99.90;;;;;;6216745;23;19995;-69
2022/07/17 10:21:19;;;;;;;;;;;17.70;99.90;;;;;;6217371;23;19919;-71
2022/07/17 10:24:05;;;;;;;;;;;17.70;99.90;;;;;;6217385;23;19954;-69
2022/07/17 10:26:31;;;;;;;;;;;17.70;99.90;;;;;;6217279;23;19915;-69
2022/07/17 10:28:57;;;;;;;;;;;17.70;99.90;;;;;;6190762;23;19922;-71
2022/07/17 10:31:24;;;;;;;;;;;17.80;99.90;;;;;;6217364;23;19919;-69
2022/07/17 10:33:58;;;;;;;;;;;17.80;99.90;;;;;;6217356;23;20296;-71
2022/07/17 10:36:33;;;;;;;;;;;17.80;99.90;;;;;;6217511;23;19916;-70
2022/07/17 10:39:10;;;;;;;;;;;17.90;99.90;;;;;;6217305;23;19990;-69
2022/07/17 10:41:35;;;;;;;;;;;17.90;99.90;;;;;;6217395;23;20288;-68
2022/07/17 10:44:01;;;;;;;;;;;17.90;99.90;;;;;;6190355;23;19915;-69
2022/07/17 10:46:28;;;;;;;;;;;18.00;99.90;;;;;;6216540;23;19935;-70
2022/07/17 10:48:55;;;;;;;;;;;18.00;99.90;;;;;;6217034;23;19920;-70
2022/07/17 10:51:27;;;;;;;;;;;18.00;99.90;;;;;;6216851;23;19977;-70
2022/07/17 10:53:58;;;;;;;;;;;18.00;99.90;;;;;;6216686;23;19923;-70
2022/07/17 10:56:25;;;;;;;;;;;18.00;99.90;;;;;;6216996;23;19986;-68
2022/07/17 10:58:52;;;;;;;;;;;18.10;99.90;;;;;;6217057;23;19920;-68
2022/07/17 11:01:19;;;;;;;;;;;18.00;99.90;;;;;;6216804;23;19915;-71
2022/07/17 11:03:45;;;;;;;;;;;18.10;99.90;;;;;;6215718;23;19920;-70
2022/07/17 11:06:17;;;;;;;;;;;18.10;99.90;;;;;;6216024;23;19920;-70
2022/07/17 11:08:45;;;;;;;;;;;18.10;99.90;;;;;;6217116;23;20306;-68
2022/07/17 11:11:11;;;;;;;;;;;18.20;99.90;;;;;;6190003;23;20384;-69
2022/07/17 11:13:37;;;;;;;;;;;18.30;99.90;;;;;;6216152;23;19916;-70
2022/07/17 11:16:04;;;;;;;;;;;18.30;99.90;;;;;;6190220;23;19916;-70
2022/07/17 11:18:30;;;;;;;;;;;18.40;99.90;;;;;;6190008;23;19915;-71
2022/07/17 11:20:59;;;;;;;;;;;18.50;99.90;;;;;;6216854;23;19916;-69
2022/07/17 11:23:30;;;;;;;;;;;18.50;99.90;;;;;;6216734;23;19927;-68
2022/07/17 11:25:58;;;;;;;;;;;18.50;99.90;;;;;;6216568;23;19916;-70
2022/07/17 11:28:30;;;;;;;;;;;18.60;99.90;;;;;;6216710;23;20001;-69
2022/07/17 11:30:56;;;;;;;;;;;18.60;99.90;;;;;;6190089;23;19922;-70
2022/07/17 11:33:21;;;;;;;;;;;18.70;99.90;;;;;;6216733;23;19994;-69
2022/07/17 11:35:47;;;;;;;;;;;18.70;99.90;;;;;;6216619;23;19962;-70
2022/07/17 11:38:13;;;;;;;;;;;18.70;99.90;;;;;;6216458;23;19949;-69
2022/07/17 11:40:46;;;;;;;;;;;18.70;99.90;;;;;;6216691;23;19916;-69
2022/07/17 11:43:12;;;;;;;;;;;18.70;99.90;;;;;;6216557;23;19939;-70
2022/07/17 11:45:39;;;;;;;;;;;18.80;99.90;;;;;;6189590;23;20333;-68
2022/07/17 11:48:05;;;;;;;;;;;18.80;99.90;;;;;;6216440;23;19943;-69
2022/07/17 11:50:31;;;;;;;;;;;18.90;99.90;;;;;;6189982;23;20214;-69
2022/07/17 11:53:00;;;;;;;;;;;18.90;99.90;;;;;;6216118;23;20303;-71
2022/07/17 11:55:34;;;;;;;;;;;18.90;99.90;;;;;;6164315;23;19955;-69
2022/07/17 11:58:03;;;;;;;;;;;18.90;99.90;;;;;;6215729;23;19916;-69
2022/07/17 12:00:29;;;;;;;;;;;18.90;99.90;;;;;;6189113;23;19923;-70
2022/07/17 12:02:59;;;;;;;;;;;18.90;99.90;;;;;;6216469;23;19998;-70
2022/07/17 12:05:27;;;;;;;;;;;19.00;99.90;;;;;;6215502;23;19927;-69
2022/07/17 12:07:53;;;;;;;;;;;19.00;99.90;;;;;;6216450;23;19923;-69
2022/07/17 12:10:21;;;;;;;;;;;19.00;99.90;;;;;;6215911;23;19919;-70
2022/07/17 12:12:56;;;;;;;;;;;19.70;99.90;;;;;;6215860;23;20222;-69
2022/07/17 12:15:33;;;;;;;;;;;19.20;99.90;;;;;;6215355;23;19916;-69
2022/07/17 12:17:59;;;;;;;;;;;19.20;99.90;;;;;;6216256;23;19916;-70
2022/07/17 12:20:25;;;;;;;;;;;19.20;99.90;;;;;;6164434;23;19982;-68
2022/07/17 12:22:51;;;;;;;;;;;19.20;99.90;;;;;;6216261;23;19939;-69
2022/07/17 12:25:24;;;;;;;;;;;19.20;99.90;;;;;;6215957;23;19922;-70
2022/07/17 12:27:50;;;;;;;;;;;19.30;99.90;;;;;;6215424;23;19982;-68
2022/07/17 12:30:15;;;;;;;;;;;19.30;99.90;;;;;;6215532;23;20317;-69
2022/07/17 12:32:41;;;;;;;;;;;19.40;99.90;;;;;;6215926;23;20222;-69
2022/07/17 12:35:07;;;;;;;;;;;19.40;99.90;;;;;;6216556;23;20317;-69
2022/07/17 12:37:33;;;;;;;;;;;19.40;99.90;;;;;;6216205;23;19923;-69
2022/07/17 12:39:58;;;;;;;;;;;19.50;99.90;;;;;;6216203;23;20280;-70
2022/07/17 12:42:24;;;;;;;;;;;19.50;99.90;;;;;;6215487;23;19919;-69
2022/07/17 12:45:05;;;;;;;;;;;19.60;99.90;;;;;;6215454;23;19916;-69
2022/07/17 12:47:31;;;;;;;;;;;19.60;99.90;;;;;;6188551;23;19916;-69
2022/07/17 12:49:57;;;;;;;;;;;19.60;99.90;;;;;;6215767;23;19922;-70
2022/07/17 12:52:22;;;;;;;;;;;19.70;99.90;;;;;;6216080;23;19962;-69
2022/07/17 12:54:48;;;;;;;;;;;19.80;99.90;;;;;;6216318;23;19916;-70
2022/07/17 12:57:14;;;;;;;;;;;19.70;99.90;;;;;;6164725;23;19943;-69
2022/07/17 12:59:39;;;;;;;;;;;19.70;99.90;;;;;;6216369;23;19970;-68
2022/07/17 13:02:06;;;;;;;;;;;19.80;99.90;;;;;;6215593;23;20296;-69
2022/07/17 13:04:32;;;;;;;;;;;19.80;99.90;;;;;;6216162;23;19939;-69
2022/07/17 13:06:58;;;;;;;;;;;19.80;99.90;;;;;;6216054;23;20329;-70
2022/07/17 13:09:24;;;;;;;;;;;19.80;99.90;;;;;;6216350;23;19923;-70
2022/07/17 13:11:51;;;;;;;;;;;19.80;99.90;;;;;;6216087;23;19916;-70
2022/07/17 13:14:17;;;;;;;;;;;19.80;99.90;;;;;;6215961;23;20322;-71
2022/07/17 13:16:43;;;;;;;;;;;19.90;99.90;;;;;;6215913;23;19915;-70
2022/07/17 13:19:11;;;;;;;;;;;19.90;99.90;;;;;;6214551;23;19923;-69
2022/07/17 13:21:37;;;;;;;;;;;19.90;99.90;;;;;;6217147;23;19958;-70
2022/07/17 13:24:03;;;;;;;;;;;20.00;99.90;;;;;;6218039;23;19915;-70
2022/07/17 13:26:29;;;;;;;;;;;20.00;99.90;;;;;;6216649;23;19923;-69
2022/07/17 13:28:55;;;;;;;;;;;20.10;99.90;;;;;;6217582;23;20234;-70
2022/07/17 13:31:21;;;;;;;;;;;20.10;99.90;;;;;;6189916;23;19915;-71
2022/07/17 13:33:47;;;;;;;;;;;20.20;99.90;;;;;;6189161;23;19974;-69
2022/07/17 13:36:13;;;;;;;;;;;20.20;99.90;;;;;;6218047;23;20321;-70
2022/07/17 13:38:39;;;;;;;;;;;20.20;99.90;;;;;;6216930;23;20002;-70
2022/07/17 13:41:05;;;;;;;;;;;20.20;99.90;;;;;;6217889;23;19954;-70
2022/07/17 13:43:31;;;;;;;;;;;20.30;99.90;;;;;;6217007;23;20364;-69
2022/07/17 13:45:57;;;;;;;;;;;20.30;99.90;;;;;;6216576;23;19920;-70
2022/07/17 13:48:22;;;;;;;;;;;20.40;99.90;;;;;;6215087;23;19939;-71
2022/07/17 13:50:48;;;;;;;;;;;20.40;99.90;;;;;;6217524;23;19985;-70
2022/07/17 13:53:13;;;;;;;;;;;20.40;99.90;;;;;;6190550;23;19916;-70
2022/07/17 13:55:39;;;;;;;;;;;20.50;99.90;;;;;;6190462;23;19916;-69
2022/07/17 13:58:06;;;;;;;;;;;20.50;99.90;;;;;;6189939;23;19974;-69
2022/07/17 14:00:32;;;;;;;;;;;20.40;99.90;;;;;;6190038;23;19960;-70
2022/07/17 14:02:57;;;;;;;;;;;20.50;99.90;;;;;;6217329;23;20356;-70
2022/07/17 14:05:23;;;;;;;;;;;20.50;99.90;;;;;;6217717;23;19927;-69
2022/07/17 14:07:48;;;;;;;;;;;20.60;99.90;;;;;;6190553;23;20384;-69
2022/07/17 14:10:14;;;;;;;;;;;20.60;99.90;;;;;;6190636;23;19986;-69